Time;durP1;ratioP1;P1;durP2;ratioP2;P2;SDS_P1;SDS_P2;PMS_P1;PMS_P2;Temp;Humidity;BMP_temperature;BMP_pressure;BME280_temperature;BME280_humidity;BME280_pressure;Samples;Min_cycle;Max_cycle;Signal;HPM_P1;HPM_P2
2022/11/16 00:01:28;;;;;;;0.60;0.60;;;;;;;;;;5035968;28;20268;-76
2022/11/16 00:03:55;;;;;;;0.70;0.70;;;;;;;;;;5035272;28;20267;-77
2022/11/16 00:06:21;;;;;;;0.60;0.60;;;;;;;;;;5036308;28;20194;-76
2022/11/16 00:09:20;;;;;;;0.60;0.60;;;;;;;;;;5033516;28;20595;-77
2022/11/16 00:11:34;;;;;;;0.60;0.60;;;;;;;;;;5033236;28;20176;-78
2022/11/16 00:14:00;;;;;;;0.60;0.60;;;;;;;;;;5033255;28;20263;-77
2022/11/16 00:16:27;;;;;;;0.50;0.50;;;;;;;;;;5033478;28;20279;-77
2022/11/16 00:18:57;;;;;;;0.60;0.60;;;;;;;;;;5033977;28;20183;-79
2022/11/16 00:21:23;;;;;;;0.70;0.70;;;;;;;;;;5034384;28;20256;-77
2022/11/16 00:23:49;;;;;;;0.60;0.60;;;;;;;;;;5032552;28;20175;-77
2022/11/16 00:26:15;;;;;;;0.60;0.60;;;;;;;;;;5033082;28;20184;-77
2022/11/16 00:28:41;;;;;;;0.60;0.60;;;;;;;;;;5032440;28;20176;-77
2022/11/16 00:31:07;;;;;;;0.60;0.60;;;;;;;;;;5032348;28;20180;-76
2022/11/16 00:33:33;;;;;;;0.60;0.60;;;;;;;;;;5033331;28;20176;-77
2022/11/16 00:36:03;;;;;;;0.70;0.70;;;;;;;;;;5033737;28;20215;-77
2022/11/16 00:38:29;;;;;;;0.70;0.70;;;;;;;;;;5034707;28;20176;-77
2022/11/16 00:40:55;;;;;;;0.60;0.60;;;;;;;;;;5019046;28;20530;-77
2022/11/16 00:43:21;;;;;;;0.60;0.60;;;;;;;;;;5034485;28;20203;-77
2022/11/16 00:45:47;;;;;;;0.70;0.70;;;;;;;;;;5033786;28;20199;-77
2022/11/16 00:48:13;;;;;;;0.60;0.60;;;;;;;;;;5034362;28;20245;-77
2022/11/16 00:50:39;;;;;;;0.60;0.60;;;;;;;;;;5032470;28;20263;-78
2022/11/16 00:53:06;;;;;;;0.60;0.60;;;;;;;;;;5032329;28;20259;-77
2022/11/16 00:55:32;;;;;;;0.57;0.57;;;;;;;;;;5031659;28;20212;-77
2022/11/16 00:57:58;;;;;;;0.60;0.60;;;;;;;;;;5032161;28;20191;-77
2022/11/16 01:00:24;;;;;;;0.50;0.50;;;;;;;;;;5032130;28;20176;-77
2022/11/16 01:02:53;;;;;;;0.63;0.63;;;;;;;;;;5032606;28;20175;-77
2022/11/16 01:05:20;;;;;;;0.50;0.50;;;;;;;;;;5031205;28;20203;-77
2022/11/16 01:07:46;;;;;;;0.70;0.70;;;;;;;;;;5032280;28;20183;-77
2022/11/16 01:10:13;;;;;;;0.60;0.60;;;;;;;;;;5031251;28;20183;-77
2022/11/16 01:12:39;;;;;;;0.67;0.67;;;;;;;;;;5031427;28;20294;-76
2022/11/16 01:15:07;;;;;;;0.70;0.70;;;;;;;;;;5031181;28;20836;-77
2022/11/16 01:17:34;;;;;;;0.60;0.60;;;;;;;;;;5031544;28;20258;-76
2022/11/16 01:19:59;;;;;;;0.70;0.70;;;;;;;;;;5031933;28;20208;-77
2022/11/16 01:22:25;;;;;;;0.70;0.70;;;;;;;;;;5031558;28;20200;-77
2022/11/16 01:24:51;;;;;;;0.53;0.53;;;;;;;;;;5030928;28;20188;-77
2022/11/16 01:27:17;;;;;;;0.50;0.50;;;;;;;;;;5031356;28;20184;-76
2022/11/16 01:29:44;;;;;;;0.50;0.50;;;;;;;;;;5031725;28;20179;-78
2022/11/16 01:32:10;;;;;;;0.60;0.60;;;;;;;;;;5031199;28;20226;-76
2022/11/16 01:34:36;;;;;;;0.70;0.70;;;;;;;;;;5030574;28;20207;-77
2022/11/16 01:37:02;;;;;;;0.60;0.60;;;;;;;;;;5031502;28;20176;-76
2022/11/16 01:39:28;;;;;;;0.70;0.70;;;;;;;;;;5031532;28;20271;-77
2022/11/16 01:41:54;;;;;;;0.70;0.70;;;;;;;;;;5031436;28;20172;-76
2022/11/16 01:44:32;;;;;;;0.60;0.60;;;;;;;;;;5030775;28;20211;-77
2022/11/16 01:46:58;;;;;;;0.60;0.60;;;;;;;;;;5031253;28;20183;-77
2022/11/16 01:49:25;;;;;;;0.60;0.60;;;;;;;;;;5031113;28;20196;-76
2022/11/16 01:51:53;;;;;;;0.50;0.50;;;;;;;;;;5040836;28;20175;-77
2022/11/16 01:54:19;;;;;;;0.60;0.60;;;;;;;;;;5050841;28;20203;-77
2022/11/16 01:56:47;;;;;;;0.50;0.50;;;;;;;;;;5052017;28;20770;-77
2022/11/16 01:59:14;;;;;;;0.60;0.60;;;;;;;;;;5051915;28;20175;-77
2022/11/16 02:01:40;;;;;;;0.60;0.60;;;;;;;;;;5051330;28;20197;-77
2022/11/16 02:04:06;;;;;;;0.63;0.63;;;;;;;;;;5050700;28;20195;-77
2022/11/16 02:06:37;;;;;;;0.67;0.67;;;;;;;;;;5051505;28;20269;-77
2022/11/16 02:12:34;;;;;;;0.70;0.70;;;;;;;;;;5051066;28;20186;-76
2022/11/16 02:15:00;;;;;;;0.60;0.60;;;;;;;;;;5019836;28;20221;-76
2022/11/16 02:18:01;;;;;;;0.70;0.70;;;;;;;;;;5050825;28;20179;-76
2022/11/16 02:20:36;;;;;;;0.60;0.60;;;;;;;;;;4970044;28;20280;-76
2022/11/16 02:23:14;;;;;;;0.60;0.60;;;;;;;;;;5041372;28;20183;-77
2022/11/16 02:26:00;;;;;;;0.60;0.60;;;;;;;;;;5054177;28;20198;-76
2022/11/16 02:28:28;;;;;;;0.60;0.60;;;;;;;;;;5054435;28;20198;-77
2022/11/16 02:30:56;;;;;;;0.53;0.53;;;;;;;;;;5054594;28;20175;-77
2022/11/16 02:33:26;;;;;;;0.70;0.70;;;;;;;;;;5054379;28;20262;-77
2022/11/16 02:35:58;;;;;;;0.50;0.50;;;;;;;;;;5053785;28;20234;-77
2022/11/16 02:38:27;;;;;;;0.63;0.63;;;;;;;;;;5054745;28;20631;-77
2022/11/16 02:40:55;;;;;;;0.60;0.60;;;;;;;;;;5054786;28;20506;-76
2022/11/16 02:43:27;;;;;;;0.60;0.60;;;;;;;;;;5054887;28;20543;-77
2022/11/16 02:45:54;;;;;;;0.50;0.50;;;;;;;;;;5036313;28;20285;-77
2022/11/16 02:48:23;;;;;;;0.70;0.70;;;;;;;;;;5054427;28;20187;-76
2022/11/16 02:50:51;;;;;;;0.60;0.60;;;;;;;;;;5054754;28;20187;-77
2022/11/16 02:53:18;;;;;;;0.60;0.60;;;;;;;;;;5054638;28;20222;-77
2022/11/16 02:55:44;;;;;;;0.70;0.70;;;;;;;;;;5053741;28;20215;-77
2022/11/16 02:58:11;;;;;;;0.60;0.60;;;;;;;;;;5054186;28;20178;-77
2022/11/16 03:00:56;;;;;;;0.60;0.60;;;;;;;;;;5054195;28;20182;-77
2022/11/16 03:03:41;;;;;;;0.50;0.50;;;;;;;;;;5054089;28;20266;-77
2022/11/16 03:06:12;;;;;;;0.60;0.60;;;;;;;;;;5053757;28;20199;-77
2022/11/16 03:08:41;;;;;;;0.60;0.60;;;;;;;;;;5053936;28;20857;-76
2022/11/16 03:13:56;;;;;;;0.60;0.60;;;;;;;;;;5054110;28;20527;-77
2022/11/16 03:16:24;;;;;;;0.63;0.63;;;;;;;;;;5054042;28;20226;-77
2022/11/16 03:18:52;;;;;;;0.60;0.60;;;;;;;;;;5054312;28;20178;-77
2022/11/16 03:21:24;;;;;;;0.60;0.60;;;;;;;;;;5053923;28;20257;-77
2022/11/16 03:23:50;;;;;;;0.60;0.60;;;;;;;;;;5053264;28;20179;-77
2022/11/16 03:26:18;;;;;;;0.70;0.70;;;;;;;;;;5053928;28;20218;-77
2022/11/16 03:28:57;;;;;;;0.60;0.60;;;;;;;;;;5053755;28;20175;-77
2022/11/16 03:31:28;;;;;;;0.60;0.60;;;;;;;;;;5054946;28;20659;-77
2022/11/16 03:33:56;;;;;;;0.60;0.60;;;;;;;;;;5053447;28;20179;-77
2022/11/16 03:36:37;;;;;;;0.50;0.50;;;;;;;;;;5054024;28;20263;-78
2022/11/16 03:39:09;;;;;;;0.70;0.70;;;;;;;;;;5055141;28;20183;-78
2022/11/16 03:41:36;;;;;;;0.53;0.53;;;;;;;;;;5059441;28;20186;-77
2022/11/16 03:44:03;;;;;;;0.60;0.60;;;;;;;;;;5070981;28;20198;-77
2022/11/16 03:46:29;;;;;;;0.70;0.70;;;;;;;;;;5072385;28;20178;-76
2022/11/16 03:48:59;;;;;;;0.53;0.53;;;;;;;;;;5094036;22;20291;-80
2022/11/16 03:51:25;;;;;;;0.60;0.60;;;;;;;;;;5069671;28;20175;-80
2022/11/16 03:53:51;;;;;;;0.60;0.60;;;;;;;;;;5070463;28;20182;-79
2022/11/16 03:56:17;;;;;;;0.60;0.60;;;;;;;;;;5070934;28;20214;-81
2022/11/16 03:58:43;;;;;;;0.60;0.60;;;;;;;;;;5071369;28;20182;-80
2022/11/16 04:01:09;;;;;;;0.70;0.70;;;;;;;;;;5072818;28;20223;-78
2022/11/16 04:03:35;;;;;;;0.50;0.50;;;;;;;;;;5063483;28;20204;-77
2022/11/16 04:25:25;;;;;;;0.60;0.60;;;;;;;;;;5057723;28;20277;-78
2022/11/16 04:38:50;;;;;;;0.70;0.70;;;;;;;;;;5057442;28;20190;-78
2022/11/16 04:44:01;;;;;;;0.60;0.60;;;;;;;;;;5057794;28;20182;-76
2022/11/16 04:49:11;;;;;;;0.67;0.67;;;;;;;;;;5057540;28;20202;-77
2022/11/16 04:51:37;;;;;;;0.70;0.70;;;;;;;;;;5055920;28;20183;-76
2022/11/16 04:54:03;;;;;;;0.60;0.60;;;;;;;;;;5057258;28;20183;-76
2022/11/16 04:56:29;;;;;;;0.70;0.70;;;;;;;;;;5058424;28;20225;-77
2022/11/16 04:58:55;;;;;;;0.60;0.60;;;;;;;;;;5062947;28;20199;-79
2022/11/16 05:02:06;;;;;;;0.50;0.50;;;;;;;;;;5057815;28;20186;-77
2022/11/16 05:04:07;;;;;;;0.60;0.60;;;;;;;;;;5051763;28;20199;-77
2022/11/16 05:06:33;;;;;;;0.60;0.60;;;;;;;;;;5052898;28;20670;-77
2022/11/16 05:08:59;;;;;;;0.70;0.70;;;;;;;;;;5052724;28;20175;-78
2022/11/16 05:11:25;;;;;;;0.60;0.60;;;;;;;;;;5052787;28;20181;-77
2022/11/16 05:13:51;;;;;;;0.50;0.50;;;;;;;;;;5051988;28;20189;-78
2022/11/16 05:16:17;;;;;;;0.50;0.50;;;;;;;;;;5053430;28;20207;-77
2022/11/16 05:18:43;;;;;;;0.50;0.50;;;;;;;;;;5053065;28;20205;-78
2022/11/16 05:21:09;;;;;;;0.60;0.60;;;;;;;;;;5054046;28;20544;-78
2022/11/16 05:26:20;;;;;;;0.60;0.60;;;;;;;;;;5075446;28;20186;-81
2022/11/16 05:28:46;;;;;;;0.57;0.57;;;;;;;;;;5055469;28;20179;-78
2022/11/16 05:31:12;;;;;;;0.57;0.57;;;;;;;;;;5061993;28;20181;-78
2022/11/16 05:33:38;;;;;;;0.60;0.60;;;;;;;;;;5053648;28;20175;-79
2022/11/16 05:36:04;;;;;;;0.60;0.60;;;;;;;;;;5053106;28;20226;-78
2022/11/16 05:38:30;;;;;;;0.53;0.53;;;;;;;;;;5053677;28;20262;-77
2022/11/16 05:40:56;;;;;;;0.60;0.60;;;;;;;;;;5036401;28;20210;-77
2022/11/16 05:43:22;;;;;;;0.70;0.70;;;;;;;;;;5054130;28;20542;-80
2022/11/16 05:45:48;;;;;;;0.60;0.60;;;;;;;;;;5055039;28;20191;-77
2022/11/16 05:48:14;;;;;;;0.50;0.50;;;;;;;;;;5055106;28;20203;-80
2022/11/16 05:50:40;;;;;;;0.60;0.60;;;;;;;;;;5058973;28;20175;-79
2022/11/16 05:53:06;;;;;;;0.60;0.60;;;;;;;;;;5056857;28;20240;-80
2022/11/16 05:55:32;;;;;;;0.63;0.63;;;;;;;;;;5054470;28;20640;-79
2022/11/16 05:57:57;;;;;;;0.60;0.60;;;;;;;;;;5067637;28;20177;-78
2022/11/16 06:00:23;;;;;;;0.60;0.60;;;;;;;;;;5071958;28;20715;-79
2022/11/16 06:02:49;;;;;;;0.60;0.60;;;;;;;;;;5067517;28;20189;-79
2022/11/16 06:05:15;;;;;;;0.53;0.53;;;;;;;;;;5050348;28;20262;-79
2022/11/16 06:07:41;;;;;;;0.53;0.53;;;;;;;;;;5069146;28;20167;-79
2022/11/16 06:10:07;;;;;;;0.60;0.60;;;;;;;;;;5066151;28;20251;-79
2022/11/16 06:12:33;;;;;;;0.70;0.70;;;;;;;;;;5063760;28;20186;-78
2022/11/16 06:14:59;;;;;;;0.70;0.70;;;;;;;;;;5059631;28;20219;-78
2022/11/16 06:17:25;;;;;;;0.60;0.60;;;;;;;;;;5056120;28;20178;-77
2022/11/16 06:19:51;;;;;;;0.63;0.63;;;;;;;;;;5055544;28;20651;-77
2022/11/16 06:22:17;;;;;;;0.53;0.53;;;;;;;;;;5066544;28;20179;-79
2022/11/16 06:24:43;;;;;;;0.50;0.50;;;;;;;;;;5066868;28;20334;-79
2022/11/16 06:27:09;;;;;;;0.63;0.63;;;;;;;;;;5069319;28;20235;-78
2022/11/16 06:29:35;;;;;;;0.60;0.60;;;;;;;;;;5069064;28;20179;-79
2022/11/16 06:32:01;;;;;;;0.70;0.70;;;;;;;;;;5068124;28;20175;-78
2022/11/16 06:34:27;;;;;;;0.57;0.57;;;;;;;;;;5050156;28;20191;-78
2022/11/16 06:36:53;;;;;;;0.60;0.60;;;;;;;;;;5068038;28;20585;-78
2022/11/16 06:39:19;;;;;;;0.50;0.50;;;;;;;;;;5068851;28;20244;-79
2022/11/16 06:41:45;;;;;;;0.50;0.50;;;;;;;;;;5069366;28;20188;-79
2022/11/16 06:44:11;;;;;;;0.60;0.60;;;;;;;;;;5067290;28;20195;-80
2022/11/16 06:46:36;;;;;;;0.60;0.60;;;;;;;;;;5074092;28;20194;-78
2022/11/16 06:49:02;;;;;;;0.60;0.60;;;;;;;;;;5076909;28;20183;-79
2022/11/16 06:51:28;;;;;;;0.30;0.30;;;;;;;;;;5074044;28;20460;-80
2022/11/16 06:53:54;;;;;;;0.50;0.50;;;;;;;;;;5069778;28;20183;-77
2022/11/16 06:56:20;;;;;;;0.50;0.50;;;;;;;;;;5061601;28;20532;-77
2022/11/16 06:58:46;;;;;;;0.50;0.50;;;;;;;;;;5059783;28;20183;-76
2022/11/16 07:01:12;;;;;;;0.60;0.60;;;;;;;;;;5057923;28;20182;-77
2022/11/16 07:03:38;;;;;;;0.50;0.50;;;;;;;;;;5050852;28;20171;-77
2022/11/16 07:06:05;;;;;;;0.50;0.50;;;;;;;;;;5055650;28;20256;-77
2022/11/16 07:08:31;;;;;;;0.70;0.70;;;;;;;;;;5043135;28;20176;-77
2022/11/16 07:11:00;;;;;;;0.60;0.60;;;;;;;;;;5034799;28;20176;-77
2022/11/16 07:13:26;;;;;;;0.60;0.60;;;;;;;;;;5048711;28;20179;-78
2022/11/16 07:15:52;;;;;;;0.50;0.50;;;;;;;;;;5055825;28;20219;-77
2022/11/16 07:18:18;;;;;;;0.50;0.50;;;;;;;;;;5055374;28;20183;-76
2022/11/16 07:20:44;;;;;;;0.63;0.63;;;;;;;;;;5053836;28;20270;-77
2022/11/16 07:23:10;;;;;;;0.60;0.60;;;;;;;;;;5053826;28;20313;-77
2022/11/16 07:25:36;;;;;;;0.70;0.70;;;;;;;;;;5053094;28;20199;-77
2022/11/16 07:28:03;;;;;;;0.67;0.67;;;;;;;;;;5054445;28;20175;-77
2022/11/16 07:30:29;;;;;;;0.63;0.63;;;;;;;;;;5048336;28;20264;-77
2022/11/16 07:32:59;;;;;;;0.50;0.50;;;;;;;;;;5045222;28;20187;-77
2022/11/16 07:35:25;;;;;;;0.50;0.50;;;;;;;;;;5044312;28;20204;-77
2022/11/16 07:37:50;;;;;;;0.50;0.50;;;;;;;;;;5044320;28;20178;-77
2022/11/16 07:40:16;;;;;;;0.60;0.60;;;;;;;;;;5054557;28;20206;-77
2022/11/16 07:42:44;;;;;;;0.57;0.57;;;;;;;;;;5058687;28;20663;-77
2022/11/16 07:45:11;;;;;;;0.50;0.50;;;;;;;;;;5058760;28;20210;-79
2022/11/16 07:47:37;;;;;;;0.50;0.50;;;;;;;;;;5071567;28;20194;-77
2022/11/16 07:50:04;;;;;;;0.57;0.57;;;;;;;;;;5083093;28;20523;-78
2022/11/16 07:52:30;;;;;;;0.50;0.50;;;;;;;;;;5076758;28;20202;-78
2022/11/16 07:54:56;;;;;;;0.50;0.50;;;;;;;;;;5085041;28;20256;-78
2022/11/16 07:57:22;;;;;;;0.50;0.50;;;;;;;;;;5084707;28;20183;-78
2022/11/16 07:59:48;;;;;;;0.60;0.60;;;;;;;;;;5084436;28;20208;-77
2022/11/16 08:02:14;;;;;;;0.60;0.60;;;;;;;;;;5076620;28;20184;-77
2022/11/16 08:04:40;;;;;;;0.50;0.50;;;;;;;;;;5073097;28;20225;-77
2022/11/16 08:07:06;;;;;;;0.40;0.40;;;;;;;;;;5062649;28;20186;-76
2022/11/16 08:09:32;;;;;;;0.50;0.50;;;;;;;;;;5053569;28;20179;-77
2022/11/16 08:11:58;;;;;;;0.50;0.50;;;;;;;;;;5038615;28;20402;-77
2022/11/16 08:14:23;;;;;;;0.60;0.60;;;10.70;99.90;;;;;;5042771;28;20221;-78
2022/11/16 08:16:49;;;;;;;0.50;0.50;;;;;;;;;;5044165;28;20203;-77
2022/11/16 08:19:15;;;;;;;0.43;0.43;;;11.30;99.90;;;;;;5046350;28;21720;-78
2022/11/16 08:21:41;;;;;;;0.50;0.50;;;;;;;;;;5053462;28;20171;-78
2022/11/16 08:24:07;;;;;;;0.47;0.47;;;;;;;;;;5047617;28;20218;-77
2022/11/16 08:26:33;;;;;;;0.53;0.53;;;;;;;;;;5043896;28;20225;-77
2022/11/16 08:28:59;;;;;;;0.40;0.40;;;;;;;;;;5059501;28;20175;-78
2022/11/16 08:31:26;;;;;;;0.50;0.50;;;;;;;;;;5056116;28;20267;-78
2022/11/16 08:33:52;;;;;;;0.50;0.50;;;;;;;;;;5055549;28;20644;-78
2022/11/16 08:36:18;;;;;;;0.50;0.50;;;11.30;99.90;;;;;;5052586;28;20302;-78
2022/11/16 08:38:45;;;;;;;0.50;0.50;;;;;;;;;;5057332;28;20233;-78
2022/11/16 08:41:11;;;;;;;0.50;0.50;;;;;;;;;;5039142;28;20263;-78
2022/11/16 08:43:39;;;;;;;0.50;0.50;;;;;;;;;;5054710;28;20195;-77
2022/11/16 08:46:06;;;;;;;0.60;0.60;;;;;;;;;;5032599;28;20203;-76
2022/11/16 08:48:32;;;;;;;0.40;0.40;;;;;;;;;;5014984;28;20246;-77
2022/11/16 08:51:02;;;;;;;0.50;0.50;;;;;;;;;;5032963;28;20195;-76
2022/11/16 08:53:27;;;;;;;0.50;0.50;;;;;;;;;;5033459;28;20266;-77
2022/11/16 08:55:53;;;;;;;0.40;0.40;;;;;;;;;;5034916;28;20420;-77
2022/11/16 08:58:19;;;;;;;0.43;0.43;;;;;;;;;;5035860;28;20179;-77
2022/11/16 09:00:45;;;;;;;0.40;0.40;;;;;;;;;;5034785;28;20187;-77
2022/11/16 09:03:11;;;;;;;0.40;0.40;;;;;;;;;;5045559;28;20167;-78
2022/11/16 09:05:38;;;;;;;0.60;0.60;;;;;;;;;;5037654;28;20208;-78
2022/11/16 09:08:04;;;;;;;0.40;0.40;;;;;;;;;;5037935;28;20180;-77
2022/11/16 09:10:30;;;;;;;0.40;0.40;;;;;;;;;;5038222;28;20270;-77
2022/11/16 09:12:57;;;;;;;0.40;0.40;;;;;;;;;;5036379;28;20168;-78
2022/11/16 09:15:23;;;;;;;0.40;0.40;;;;;;;;;;5037428;28;20709;-78
2022/11/16 09:17:53;;;;;;;0.40;0.40;;;;;;;;;;5042438;28;20172;-77
2022/11/16 09:20:19;;;;;;;0.50;0.50;;;;;;;;;;5046735;28;20183;-77
2022/11/16 09:22:45;;;;;;;0.40;0.40;;;;;;;;;;5046778;28;20202;-77
2022/11/16 09:25:12;;;;;;;0.40;0.40;;;;;;;;;;5035922;28;20766;-78
2022/11/16 09:27:38;;;;;;;0.40;0.40;;;;;;;;;;5042323;28;20187;-77
2022/11/16 09:30:04;;;;;;;0.50;0.50;;;;;;;;;;5039617;28;20675;-77
2022/11/16 09:32:30;;;;;;;0.40;0.40;;;;;;;;;;5055928;28;20175;-77
2022/11/16 09:34:56;;;;;;;0.33;0.33;;;;;;;;;;5054413;28;20259;-78
2022/11/16 09:37:22;;;;;;;0.40;0.40;;;;;;;;;;5057503;28;20175;-77
2022/11/16 09:39:48;;;;;;;0.57;0.57;;;;;;;;;;5054861;28;20185;-77
2022/11/16 09:42:27;;;;;;;0.40;0.40;;;12.00;99.90;;;;;;5059320;28;20213;-77
2022/11/16 09:44:56;;;;;;;0.30;0.30;;;16.20;5.70;;;;;;5060083;28;20199;-76
2022/11/16 09:47:25;;;;;;;0.33;0.33;;;18.00;99.90;;;;;;5052242;28;20171;-78
2022/11/16 09:49:52;;;;;;;0.30;0.30;;;18.90;34.90;;;;;;5047016;28;20700;-77
2022/11/16 09:52:37;;;;;;;0.30;0.30;;;19.60;1.00;;;;;;5042595;28;20632;-77
2022/11/16 09:55:20;;;;;;;0.30;0.30;;;19.40;1.00;;;;;;5042219;28;20203;-77
2022/11/16 09:57:47;;;;;;;0.30;0.30;;;;;;;;;;5050809;28;20179;-77
2022/11/16 10:00:19;;;;;;;0.30;0.30;;;;;;;;;;5051205;28;20174;-76
2022/11/16 10:02:47;;;;;;;0.30;0.30;;;;;;;;;;5039750;28;20194;-77
2022/11/16 10:05:19;;;;;;;0.30;0.30;;;;;;;;;;5031740;28;20704;-77
2022/11/16 10:07:47;;;;;;;0.40;0.40;;;;;;;;;;5039895;28;20269;-76
2022/11/16 10:10:17;;;;;;;0.40;0.40;;;;;;;;;;5053122;28;20229;-77
2022/11/16 10:13:01;;;;;;;0.40;0.40;;;;;;;;;;5054288;28;20175;-77
2022/11/16 10:15:35;;;;;;;0.40;0.40;;;;;;;;;;5033364;28;20206;-77
2022/11/16 10:18:19;;;;;;;0.30;0.30;;;;;;;;;;5052045;28;20807;-78
2022/11/16 10:21:02;;;;;;;0.50;0.50;;;;;;;;;;5049608;28;20175;-77
2022/11/16 10:23:31;;;;;;;0.30;0.30;;;;;;;;;;5047117;28;20257;-77
2022/11/16 10:25:59;;;;;;;0.30;0.30;;;;;;;;;;5046621;28;20201;-78
2022/11/16 10:28:35;;;;;;;0.40;0.40;;;;;;;;;;5048031;28;20206;-77
2022/11/16 10:31:01;;;;;;;0.40;0.40;;;;;;;;;;5052822;28;20174;-78
2022/11/16 10:33:34;;;;;;;0.37;0.37;;;;;;;;;;5045876;28;20187;-78
2022/11/16 10:36:01;;;;;;;0.40;0.40;;;;;;;;;;5048429;28;20693;-77
2022/11/16 10:38:29;;;;;;;0.43;0.43;;;;;;;;;;5054498;28;20171;-78
2022/11/16 10:41:05;;;;;;;0.30;0.30;;;;;;;;;;5057558;28;20232;-78
2022/11/16 10:43:32;;;;;;;0.60;0.60;;;;;;;;;;5059113;28;20171;-78
2022/11/16 10:46:21;;;;;;;0.30;0.30;;;;;;;;;;5059627;28;20199;-76
2022/11/16 10:49:06;;;;;;;0.40;0.40;;;;;;;;;;5041630;28;20216;-79
2022/11/16 10:51:32;;;;;;;0.57;0.57;;;;;;;;;;5068329;28;20178;-78
2022/11/16 10:53:58;;;;;;;0.33;0.33;;;;;;;;;;5090433;28;20175;-78
2022/11/16 10:56:29;;;;;;;0.40;0.40;;;;;;;;;;5074578;28;20215;-78
2022/11/16 10:59:01;;;;;;;0.50;0.50;;;;;;;;;;5068365;28;20179;-78
2022/11/16 11:01:27;;;;;;;0.40;0.40;;;;;;;;;;5067070;28;20206;-78
2022/11/16 11:03:53;;;;;;;0.30;0.30;;;;;;;;;;5064415;28;20175;-77
2022/11/16 11:06:21;;;;;;;0.33;0.33;;;;;;;;;;5058184;28;20175;-76
2022/11/16 11:08:47;;;;;;;0.40;0.40;;;;;;;;;;5053477;28;20171;-77
2022/11/16 11:14:07;;;;;;;0.40;0.40;;;;;;;;;;5060320;28;20173;-79
2022/11/16 11:16:33;;;;;;;0.40;0.40;;;;;;;;;;5075760;28;20214;-79
2022/11/16 11:19:16;;;;;;;0.40;0.40;;;;;;;;;;5085411;28;20540;-79
2022/11/16 11:21:42;;;;;;;0.30;0.30;;;;;;;;;;5076846;28;20179;-77
2022/11/16 11:24:14;;;;;;;0.50;0.50;;;;;;;;;;5061528;28;20199;-77
2022/11/16 11:26:41;;;;;;;0.60;0.60;;;;;;;;;;5068340;28;20180;-78
2022/11/16 11:29:26;;;;;;;0.40;0.40;;;;;;;;;;5069822;28;20175;-77
2022/11/16 11:31:54;;;;;;;0.40;0.40;;;;;;;;;;5068156;28;20183;-78
2022/11/16 11:34:19;;;;;;;0.53;0.53;;;;;;;;;;5067247;28;20199;-78
2022/11/16 11:36:48;;;;;;;0.50;0.50;;;;;;;;;;5048701;28;20357;-77
2022/11/16 11:39:14;;;;;;;0.60;0.60;;;;;;;;;;5052169;28;20183;-76
2022/11/16 11:41:43;;;;;;;0.50;0.50;;;;;;;;;;5055794;28;20202;-81
2022/11/16 11:44:16;;;;;;;0.50;0.50;;;;;;;;;;5044961;28;20202;-78
2022/11/16 11:46:45;;;;;;;0.43;0.43;;;;;;;;;;5049085;28;20206;-80
2022/11/16 11:49:30;;;;;;;0.50;0.50;;;;;;;;;;5050809;28;20204;-78
2022/11/16 11:51:58;;;;;;;0.50;0.50;;;;;;;;;;5051498;28;20180;-79
2022/11/16 11:54:28;;;;;;;0.40;0.40;;;;;;;;;;5046213;28;20254;-79
2022/11/16 11:56:54;;;;;;;0.60;0.60;;;;;;;;;;5064604;28;20229;-79
2022/11/16 11:59:23;;;;;;;0.60;0.60;;;18.80;1.00;;;;;;5065017;28;20175;-79
2022/11/16 12:01:49;;;;;;;0.60;0.60;;;;;;;;;;5064873;28;20205;-77
2022/11/16 12:04:27;;;;;;;0.50;0.50;;;;;;;;;;5064319;28;20245;-78
2022/11/16 12:07:12;;;;;;;0.40;0.40;;;;;;;;;;5062014;28;20179;-79
2022/11/16 12:09:52;;;;;;;0.40;0.40;;;;;;;;;;5064457;28;20191;-78
2022/11/16 12:12:23;;;;;;;0.30;0.30;;;;;;;;;;5060485;28;20179;-77
2022/11/16 12:15:08;;;;;;;0.40;0.40;;;;;;;;;;5060119;28;20286;-79
2022/11/16 12:17:49;;;;;;;0.30;0.30;;;;;;;;;;5058677;28;20171;-78
2022/11/16 12:20:48;;;;;;;0.30;0.30;;;;;;;;;;5045880;28;20569;-78
2022/11/16 12:23:16;;;;;;;0.37;0.37;;;;;;;;;;5028524;28;20271;-79
2022/11/16 12:25:44;;;;;;;0.30;0.30;;;;;;;;;;5041331;28;20203;-78
2022/11/16 12:28:30;;;;;;;0.40;0.40;;;;;;;;;;5040977;28;20663;-78
2022/11/16 12:31:02;;;;;;;0.30;0.30;;;;;;;;;;5040035;28;20177;-78
2022/11/16 12:33:41;;;;;;;0.30;0.30;;;;;;;;;;5040865;28;20237;-78
2022/11/16 12:36:24;;;;;;;0.33;0.33;;;;;;;;;;5040136;28;20248;-77
2022/11/16 12:39:08;;;;;;;0.40;0.40;;;;;;;;;;5040646;28;20176;-77
2022/11/16 12:41:57;;;;;;;0.30;0.30;;;23.30;1.00;;;;;;5038756;28;20214;-77
2022/11/16 12:44:47;;;;;;;0.40;0.40;;;18.90;1.00;;;;;;5043641;28;20199;-78
2022/11/16 12:47:13;;;;;;;0.40;0.40;;;;;;;;;;5071439;28;20186;-78
2022/11/16 12:49:42;;;;;;;0.37;0.37;;;;;;;;;;5065231;28;20199;-77
2022/11/16 12:52:51;;;;;;;0.27;0.27;;;19.70;1.00;;;;;;5064735;28;20164;-77
2022/11/16 12:55:35;;;;;;;0.40;0.40;;;;;;;;;;5053430;28;20305;-77
2022/11/16 12:58:07;;;;;;;0.40;0.40;;;;;;;;;;5055963;28;20183;-77
2022/11/16 13:00:58;;;;;;;0.40;0.40;;;20.30;1.00;;;;;;5056814;28;20274;-78
2022/11/16 13:03:51;;;;;;;0.40;0.40;;;;;;;;;;5048141;28;20659;-77
2022/11/16 13:06:29;;;;;;;0.50;0.50;;;;;;;;;;5041256;28;20544;-78
2022/11/16 13:09:05;;;;;;;0.40;0.40;;;;;;;;;;5058470;28;20194;-79
2022/11/16 13:11:39;;;;;;;0.40;0.40;;;;;;;;;;5046392;28;20251;-79
2022/11/16 13:14:09;;;;;;;0.40;0.40;;;;;;;;;;5052323;28;20206;-79
2022/11/16 13:16:35;;;;;;;0.40;0.40;;;;;;;;;;5054854;28;20218;-79
2022/11/16 13:19:03;;;;;;;0.40;0.40;;;;;;;;;;5059343;28;20183;-79
2022/11/16 13:21:43;;;;;;;0.30;0.30;;;;;;;;;;5063009;28;20389;-78
2022/11/16 13:24:16;;;;;;;0.40;0.40;;;;;;;;;;5063173;28;20244;-79
2022/11/16 13:26:58;;;;;;;0.30;0.30;;;;;;;;;;5060100;28;20190;-77
2022/11/16 13:29:36;;;;;;;0.37;0.37;;;;;;;;;;5061644;28;20178;-78
2022/11/16 13:32:08;;;;;;;0.50;0.50;;;;;;;;;;5055837;28;20172;-79
2022/11/16 13:34:37;;;;;;;0.30;0.30;;;;;;;;;;5056036;28;20224;-78
2022/11/16 13:37:23;;;;;;;0.30;0.30;;;;;;;;;;5055465;28;20214;-78
2022/11/16 13:39:57;;;;;;;0.30;0.30;;;;;;;;;;5057730;28;20175;-78
2022/11/16 13:42:24;;;;;;;0.30;0.30;;;;;;;;;;5036847;28;20179;-78
2022/11/16 13:44:50;;;;;;;0.30;0.30;;;;;;;;;;5038455;28;20195;-78
2022/11/16 13:47:22;;;;;;;0.30;0.30;;;;;;;;;;5048164;28;20313;-77
2022/11/16 13:49:56;;;;;;;0.40;0.40;;;;;;;;;;5049631;28;20217;-78
2022/11/16 13:52:22;;;;;;;0.30;0.30;;;;;;;;;;5060420;28;20174;-78
2022/11/16 13:54:52;;;;;;;0.30;0.30;;;;;;;;;;5058547;28;20285;-78
2022/11/16 13:57:32;;;;;;;0.30;0.30;;;;;;;;;;5056729;28;20262;-79
2022/11/16 14:00:01;;;;;;;0.40;0.40;;;;;;;;;;5055373;28;20619;-78
2022/11/16 14:02:31;;;;;;;0.43;0.43;;;;;;;;;;5054382;28;20225;-78
2022/11/16 14:05:00;;;;;;;0.30;0.30;;;21.40;1.00;;;;;;5035821;28;20191;-78
2022/11/16 14:07:28;;;;;;;0.40;0.40;;;;;;;;;;5054543;28;20190;-77
2022/11/16 14:09:53;;;;;;;0.40;0.40;;;;;;;;;;5063020;28;20175;-78
2022/11/16 14:12:46;;;;;;;0.43;0.43;;;;;;;;;;5058724;28;20187;-77
2022/11/16 14:15:21;;;;;;;0.40;0.40;;;;;;;;;;5055317;28;20264;-78
2022/11/16 14:17:51;;;;;;;0.30;0.30;;;;;;;;;;5054833;28;20171;-77
2022/11/16 14:20:29;;;;;;;0.40;0.40;;;;;;;;;;5059290;28;20178;-78
2022/11/16 14:23:10;;;;;;;0.60;0.60;;;;;;;;;;5058437;28;20192;-78
2022/11/16 14:25:41;;;;;;;0.50;0.50;;;;;;;;;;5055681;28;20206;-77
2022/11/16 14:28:16;;;;;;;0.50;0.50;;;;;;;;;;5056136;28;20179;-77
2022/11/16 14:30:59;;;;;;;0.60;0.60;;;;;;;;;;5054968;28;20185;-77
2022/11/16 14:33:31;;;;;;;0.50;0.50;;;;;;;;;;5056992;28;20203;-76
2022/11/16 14:35:57;;;;;;;0.60;0.60;;;;;;;;;;5052139;28;20302;-77
2022/11/16 14:38:23;;;;;;;0.60;0.60;;;;;;;;;;5042372;28;20176;-77
2022/11/16 14:40:51;;;;;;;0.47;0.47;;;;;;;;;;5044608;28;20191;-77
2022/11/16 14:43:22;;;;;;;0.50;0.50;;;;;;;;;;5043356;28;20172;-77
2022/11/16 14:45:52;;;;;;;0.57;0.57;;;;;;;;;;5043134;28;20639;-77
2022/11/16 14:48:19;;;;;;;0.50;0.50;;;;;;;;;;5045017;28;20187;-76
2022/11/16 14:50:48;;;;;;;0.40;0.40;;;;;;;;;;5046927;28;20262;-77
2022/11/16 14:53:17;;;;;;;0.50;0.50;;;;;;;;;;5040515;28;20179;-77
2022/11/16 14:55:45;;;;;;;0.30;0.30;;;;;;;;;;5034188;28;20215;-77
2022/11/16 14:58:17;;;;;;;0.40;0.40;;;;;;;;;;5036069;28;20595;-77
2022/11/16 15:00:52;;;;;;;0.40;0.40;;;;;;;;;;5036640;28;20283;-77
2022/11/16 15:03:20;;;;;;;0.40;0.40;;;;;;;;;;5035690;28;20202;-77
2022/11/16 15:05:46;;;;;;;0.40;0.40;;;;;;;;;;5039171;28;20640;-77
2022/11/16 15:08:18;;;;;;;0.50;0.50;;;;;;;;;;5034044;28;20724;-78
2022/11/16 15:10:46;;;;;;;0.60;0.60;;;;;;;;;;5035104;28;20187;-78
2022/11/16 15:13:17;;;;;;;0.47;0.47;;;;;;;;;;5022701;28;20205;-78
2022/11/16 15:15:44;;;;;;;0.40;0.40;;;16.60;1.00;;;;;;5059642;28;20698;-78
2022/11/16 15:18:16;;;;;;;0.50;0.50;;;;;;;;;;5057609;28;20316;-78
2022/11/16 15:20:50;;;;;;;0.50;0.50;;;;;;;;;;5046724;28;20198;-78
2022/11/16 15:23:16;;;;;;;0.50;0.50;;;;;;;;;;5049489;28;20180;-78
2022/11/16 15:25:43;;;;;;;0.50;0.50;;;;;;;;;;5045749;28;20195;-77
2022/11/16 15:28:12;;;;;;;0.50;0.50;;;;;;;;;;5053137;28;20198;-78
2022/11/16 15:30:39;;;;;;;0.40;0.40;;;;;;;;;;5051859;28;20182;-78
2022/11/16 15:33:09;;;;;;;0.40;0.40;;;;;;;;;;5053316;28;20189;-78
2022/11/16 15:35:36;;;;;;;0.50;0.50;;;;;;;;;;5052909;28;20615;-77
2022/11/16 15:38:05;;;;;;;0.40;0.40;;;;;;;;;;5052758;28;20175;-77
2022/11/16 15:40:32;;;;;;;0.40;0.40;;;14.60;1.00;;;;;;5050898;28;20187;-78